sensor_id;sensor_type;location;lat;lon;timestamp;pressure;altitude;pressure_sealevel;temperature;humidity
2339;BME280;1180;51.438;6.978;2022-12-29T00:01:31;98986.78;;;12.76;100.00
2339;BME280;1180;51.438;6.978;2022-12-29T00:03:57;98981.22;;;12.81;100.00
2339;BME280;1180;51.438;6.978;2022-12-29T00:06:22;98979.16;;;12.84;100.00
2339;BME280;1180;51.438;6.978;2022-12-29T00:08:48;98977.94;;;12.89;100.00
2339;BME280;1180;51.438;6.978;2022-12-29T00:11:17;98974.28;;;12.91;100.00
2339;BME280;1180;51.438;6.978;2022-12-29T00:13:43;98966.84;;;12.98;100.00
2339;BME280;1180;51.438;6.978;2022-12-29T00:16:28;98959.78;;;12.90;100.00
2339;BME280;1180;51.438;6.978;2022-12-29T00:18:53;98949.09;;;12.85;100.00
2339;BME280;1180;51.438;6.978;2022-12-29T00:21:21;98954.53;;;12.72;100.00
2339;BME280;1180;51.438;6.978;2022-12-29T00:24:05;98956.56;;;12.78;100.00
2339;BME280;1180;51.438;6.978;2022-12-29T00:26:40;98949.50;;;12.90;100.00
2339;BME280;1180;51.438;6.978;2022-12-29T00:29:24;98940.56;;;12.84;100.00
2339;BME280;1180;51.438;6.978;2022-12-29T00:32:09;98947.31;;;12.85;100.00
2339;BME280;1180;51.438;6.978;2022-12-29T00:34:53;98940.44;;;12.86;100.00
2339;BME280;1180;51.438;6.978;2022-12-29T00:37:38;98942.88;;;12.78;100.00
2339;BME280;1180;51.438;6.978;2022-12-29T00:40:23;98941.38;;;12.75;100.00
2339;BME280;1180;51.438;6.978;2022-12-29T00:43:06;98925.75;;;12.96;100.00
2339;BME280;1180;51.438;6.978;2022-12-29T00:45:50;98920.34;;;12.99;100.00
2339;BME280;1180;51.438;6.978;2022-12-29T00:48:16;98920.78;;;12.85;100.00
2339;BME280;1180;51.438;6.978;2022-12-29T00:51:01;98920.78;;;12.85;100.00
2339;BME280;1180;51.438;6.978;2022-12-29T00:53:26;98923.50;;;12.74;100.00
2339;BME280;1180;51.438;6.978;2022-12-29T00:55:51;98923.66;;;12.72;100.00
2339;BME280;1180;51.438;6.978;2022-12-29T00:58:17;98921.72;;;12.94;100.00
2339;BME280;1180;51.438;6.978;2022-12-29T01:00:42;98916.31;;;12.87;100.00
2339;BME280;1180;51.438;6.978;2022-12-29T01:03:08;98913.47;;;12.90;100.00
2339;BME280;1180;51.438;6.978;2022-12-29T01:05:36;98912.88;;;12.96;100.00
2339;BME280;1180;51.438;6.978;2022-12-29T01:08:01;98902.88;;;12.93;100.00
2339;BME280;1180;51.438;6.978;2022-12-29T01:10:27;98905.44;;;12.93;100.00
2339;BME280;1180;51.438;6.978;2022-12-29T01:12:52;98908.03;;;12.93;100.00
2339;BME280;1180;51.438;6.978;2022-12-29T01:15:17;98913.81;;;13.05;100.00
2339;BME280;1180;51.438;6.978;2022-12-29T01:17:43;98909.94;;;12.91;100.00
2339;BME280;1180;51.438;6.978;2022-12-29T01:20:09;98912.75;;;12.98;100.00
2339;BME280;1180;51.438;6.978;2022-12-29T01:22:34;98893.91;;;12.97;100.00
2339;BME280;1180;51.438;6.978;2022-12-29T01:25:00;98907.34;;;12.91;100.00
2339;BME280;1180;51.438;6.978;2022-12-29T01:27:25;98910.19;;;12.98;100.00
2339;BME280;1180;51.438;6.978;2022-12-29T01:29:51;98914.09;;;13.02;100.00
2339;BME280;1180;51.438;6.978;2022-12-29T01:32:16;98909.63;;;13.04;100.00
2339;BME280;1180;51.438;6.978;2022-12-29T01:34:41;98903.00;;;12.92;100.00
2339;BME280;1180;51.438;6.978;2022-12-29T01:37:07;98893.06;;;13.07;100.00
2339;BME280;1180;51.438;6.978;2022-12-29T01:39:32;98885.88;;;13.10;100.00
2339;BME280;1180;51.438;6.978;2022-12-29T01:41:57;98877.88;;;13.13;100.00
2339;BME280;1180;51.438;6.978;2022-12-29T01:44:49;98884.22;;;13.19;100.00
2339;BME280;1180;51.438;6.978;2022-12-29T01:48:10;98873.25;;;13.17;100.00
2339;BME280;1180;51.438;6.978;2022-12-29T01:50:19;98898.44;;;13.23;100.00
2339;BME280;1180;51.438;6.978;2022-12-29T01:52:53;98890.19;;;13.20;100.00
2339;BME280;1180;51.438;6.978;2022-12-29T01:55:21;98897.41;;;13.16;100.00
2339;BME280;1180;51.438;6.978;2022-12-29T01:57:49;98892.06;;;13.27;100.00
2339;BME280;1180;51.438;6.978;2022-12-29T02:00:17;98879.88;;;13.20;100.00
2339;BME280;1180;51.438;6.978;2022-12-29T02:02:47;98883.06;;;13.04;100.00
2339;BME280;1180;51.438;6.978;2022-12-29T02:05:27;98884.63;;;13.14;100.00
2339;BME280;1180;51.438;6.978;2022-12-29T02:07:56;98876.19;;;13.32;98.74
2339;BME280;1180;51.438;6.978;2022-12-29T02:10:25;98865.00;;;13.41;98.10
2339;BME280;1180;51.438;6.978;2022-12-29T02:12:51;98875.22;;;13.43;97.18
2339;BME280;1180;51.438;6.978;2022-12-29T02:15:18;98880.66;;;13.30;96.82
2339;BME280;1180;51.438;6.978;2022-12-29T02:17:53;98878.84;;;13.40;96.72
2339;BME280;1180;51.438;6.978;2022-12-29T02:31:17;98870.44;;;13.48;94.23
2339;BME280;1180;51.438;6.978;2022-12-29T02:33:56;98877.72;;;13.53;92.72
2339;BME280;1180;51.438;6.978;2022-12-29T02:39:15;98859.78;;;13.61;92.66
2339;BME280;1180;51.438;6.978;2022-12-29T02:42:13;98851.91;;;13.63;91.41
2339;BME280;1180;51.438;6.978;2022-12-29T02:45:08;98844.09;;;13.72;90.15
2339;BME280;1180;51.438;6.978;2022-12-29T02:50:38;98852.78;;;13.53;89.84
2339;BME280;1180;51.438;6.978;2022-12-29T02:53:07;98850.44;;;13.60;89.61
2339;BME280;1180;51.438;6.978;2022-12-29T02:55:34;98843.25;;;13.54;89.04
2339;BME280;1180;51.438;6.978;2022-12-29T03:00:38;98847.56;;;13.63;88.19
2339;BME280;1180;51.438;6.978;2022-12-29T03:03:23;98849.59;;;13.60;89.24
2339;BME280;1180;51.438;6.978;2022-12-29T03:06:03;98846.31;;;13.85;87.53
2339;BME280;1180;51.438;6.978;2022-12-29T03:11:09;98839.31;;;13.60;88.89
2339;BME280;1180;51.438;6.978;2022-12-29T03:14:02;98841.75;;;13.61;88.88
2339;BME280;1180;51.438;6.978;2022-12-29T03:16:53;98844.84;;;13.83;87.41
2339;BME280;1180;51.438;6.978;2022-12-29T03:22:04;98833.06;;;13.80;87.44
2339;BME280;1180;51.438;6.978;2022-12-29T03:24:58;98833.19;;;13.79;87.37
2339;BME280;1180;51.438;6.978;2022-12-29T03:27:29;98836.91;;;13.94;86.54
2339;BME280;1180;51.438;6.978;2022-12-29T03:29:58;98835.34;;;13.83;86.74
2339;BME280;1180;51.438;6.978;2022-12-29T03:32:32;98821.78;;;13.99;86.52
2339;BME280;1180;51.438;6.978;2022-12-29T03:34:59;98828.69;;;13.99;85.74
2339;BME280;1180;51.438;6.978;2022-12-29T03:37:29;98811.38;;;13.91;86.42
2339;BME280;1180;51.438;6.978;2022-12-29T03:39:57;98817.34;;;14.10;86.19
2339;BME280;1180;51.438;6.978;2022-12-29T03:42:26;98811.28;;;14.19;85.43
2339;BME280;1180;51.438;6.978;2022-12-29T03:44:56;98817.94;;;14.04;86.94
2339;BME280;1180;51.438;6.978;2022-12-29T03:47:22;98806.66;;;14.05;86.86
2339;BME280;1180;51.438;6.978;2022-12-29T03:49:49;98807.63;;;14.04;87.52
2339;BME280;1180;51.438;6.978;2022-12-29T03:52:14;98807.03;;;14.10;87.30
2339;BME280;1180;51.438;6.978;2022-12-29T03:54:40;98800.34;;;13.99;87.74
2339;BME280;1180;51.438;6.978;2022-12-29T03:57:05;98809.19;;;13.96;88.40
2339;BME280;1180;51.438;6.978;2022-12-29T03:59:31;98793.41;;;13.99;87.88
2339;BME280;1180;51.438;6.978;2022-12-29T04:01:56;98783.72;;;13.93;88.04
2339;BME280;1180;51.438;6.978;2022-12-29T04:04:21;98769.03;;;13.94;88.05
2339;BME280;1180;51.438;6.978;2022-12-29T04:06:47;98767.84;;;13.88;88.13
2339;BME280;1180;51.438;6.978;2022-12-29T04:09:12;98773.16;;;13.86;87.58
2339;BME280;1180;51.438;6.978;2022-12-29T04:11:38;98773.75;;;13.98;87.82
2339;BME280;1180;51.438;6.978;2022-12-29T04:14:03;98765.75;;;14.10;86.85
2339;BME280;1180;51.438;6.978;2022-12-29T04:16:28;98765.09;;;14.08;86.39
2339;BME280;1180;51.438;6.978;2022-12-29T04:18:54;98764.81;;;14.11;86.27
2339;BME280;1180;51.438;6.978;2022-12-29T04:21:19;98758.31;;;14.07;86.52
2339;BME280;1180;51.438;6.978;2022-12-29T04:23:45;98757.63;;;13.96;86.60
2339;BME280;1180;51.438;6.978;2022-12-29T04:26:11;98760.84;;;13.98;86.55
2339;BME280;1180;51.438;6.978;2022-12-29T04:28:36;98761.63;;;14.17;85.53
2339;BME280;1180;51.438;6.978;2022-12-29T04:31:03;98772.19;;;14.06;86.00
2339;BME280;1180;51.438;6.978;2022-12-29T04:33:29;98765.47;;;14.13;86.52
2339;BME280;1180;51.438;6.978;2022-12-29T04:35:54;98770.63;;;14.39;84.45
2339;BME280;1180;51.438;6.978;2022-12-29T04:38:21;98772.50;;;14.29;84.82
2339;BME280;1180;51.438;6.978;2022-12-29T04:40:47;98763.78;;;14.30;84.28
2339;BME280;1180;51.438;6.978;2022-12-29T04:43:13;98763.09;;;14.20;84.32
2339;BME280;1180;51.438;6.978;2022-12-29T04:45:43;98760.81;;;14.17;84.88
2339;BME280;1180;51.438;6.978;2022-12-29T04:48:09;98749.75;;;14.06;84.28
2339;BME280;1180;51.438;6.978;2022-12-29T04:50:34;98755.31;;;14.11;84.53
2339;BME280;1180;51.438;6.978;2022-12-29T04:52:59;98766.78;;;14.17;84.24
2339;BME280;1180;51.438;6.978;2022-12-29T04:55:25;98772.44;;;14.21;83.54
2339;BME280;1180;51.438;6.978;2022-12-29T04:57:50;98774.59;;;14.25;82.98
2339;BME280;1180;51.438;6.978;2022-12-29T05:00:16;98777.66;;;14.29;82.56
2339;BME280;1180;51.438;6.978;2022-12-29T05:02:41;98764.53;;;14.22;82.28
2339;BME280;1180;51.438;6.978;2022-12-29T05:05:07;98784.16;;;14.15;83.12
2339;BME280;1180;51.438;6.978;2022-12-29T05:07:32;98780.22;;;14.03;83.23
2339;BME280;1180;51.438;6.978;2022-12-29T05:09:59;98759.28;;;14.06;83.07
2339;BME280;1180;51.438;6.978;2022-12-29T05:12:24;98781.59;;;14.15;82.67
2339;BME280;1180;51.438;6.978;2022-12-29T05:14:49;98772.94;;;14.24;81.90
2339;BME280;1180;51.438;6.978;2022-12-29T05:17:15;98796.53;;;14.29;81.47
2339;BME280;1180;51.438;6.978;2022-12-29T05:19:40;98808.22;;;14.15;81.90
2339;BME280;1180;51.438;6.978;2022-12-29T05:22:05;98806.44;;;14.16;82.00
2339;BME280;1180;51.438;6.978;2022-12-29T05:24:31;98814.44;;;14.31;81.35
2339;BME280;1180;51.438;6.978;2022-12-29T05:26:56;98809.75;;;14.26;81.83
2339;BME280;1180;51.438;6.978;2022-12-29T05:29:21;98819.59;;;14.31;81.16
2339;BME280;1180;51.438;6.978;2022-12-29T05:31:47;98828.16;;;14.32;80.90
2339;BME280;1180;51.438;6.978;2022-12-29T05:34:12;98830.09;;;14.29;80.79
2339;BME280;1180;51.438;6.978;2022-12-29T05:36:38;98821.75;;;14.36;80.18
2339;BME280;1180;51.438;6.978;2022-12-29T05:39:03;98831.72;;;14.12;80.00
2339;BME280;1180;51.438;6.978;2022-12-29T05:41:29;98834.16;;;13.96;81.33
2339;BME280;1180;51.438;6.978;2022-12-29T05:43:54;98831.72;;;14.12;81.39
2339;BME280;1180;51.438;6.978;2022-12-29T05:46:19;98849.31;;;14.17;83.21
2339;BME280;1180;51.438;6.978;2022-12-29T05:48:45;98829.72;;;14.06;85.66
2339;BME280;1180;51.438;6.978;2022-12-29T05:51:10;98832.25;;;13.98;87.20
2339;BME280;1180;51.438;6.978;2022-12-29T05:53:36;98831.09;;;13.92;89.41
2339;BME280;1180;51.438;6.978;2022-12-29T05:56:01;98837.25;;;13.99;88.92
2339;BME280;1180;51.438;6.978;2022-12-29T05:58:27;98842.56;;;13.98;89.13
2339;BME280;1180;51.438;6.978;2022-12-29T06:00:52;98845.00;;;13.99;89.58
2339;BME280;1180;51.438;6.978;2022-12-29T06:03:18;98847.59;;;13.99;89.31
2339;BME280;1180;51.438;6.978;2022-12-29T06:05:45;98862.47;;;14.06;89.16
2339;BME280;1180;51.438;6.978;2022-12-29T06:08:11;98856.94;;;14.00;89.39
2339;BME280;1180;51.438;6.978;2022-12-29T06:10:36;98862.47;;;14.06;89.26
2339;BME280;1180;51.438;6.978;2022-12-29T06:13:02;98877.03;;;13.97;88.95
2339;BME280;1180;51.438;6.978;2022-12-29T06:15:30;98879.63;;;13.97;88.44
2339;BME280;1180;51.438;6.978;2022-12-29T06:17:56;98874.09;;;13.92;88.87
2339;BME280;1180;51.438;6.978;2022-12-29T06:20:21;98871.44;;;14.01;88.11
2339;BME280;1180;51.438;6.978;2022-12-29T06:22:46;98875.41;;;13.96;87.71
2339;BME280;1180;51.438;6.978;2022-12-29T06:25:12;98863.06;;;13.99;87.32
2339;BME280;1180;51.438;6.978;2022-12-29T06:27:38;98868.03;;;14.01;86.94
2339;BME280;1180;51.438;6.978;2022-12-29T06:30:03;98879.13;;;13.93;86.93
2339;BME280;1180;51.438;6.978;2022-12-29T06:32:29;98875.78;;;14.01;86.52
2339;BME280;1180;51.438;6.978;2022-12-29T06:34:54;98888.69;;;14.01;85.16
2339;BME280;1180;51.438;6.978;2022-12-29T06:37:19;98884.72;;;13.89;85.60
2339;BME280;1180;51.438;6.978;2022-12-29T06:39:45;98891.91;;;13.85;85.45
2339;BME280;1180;51.438;6.978;2022-12-29T06:42:10;98886.00;;;13.75;84.55
2339;BME280;1180;51.438;6.978;2022-12-29T06:44:35;98886.38;;;13.80;84.39
2339;BME280;1180;51.438;6.978;2022-12-29T06:47:00;98907.16;;;13.78;83.08
2339;BME280;1180;51.438;6.978;2022-12-29T06:49:26;98903.56;;;13.89;82.33
2339;BME280;1180;51.438;6.978;2022-12-29T06:51:51;98906.66;;;13.93;81.93
2339;BME280;1180;51.438;6.978;2022-12-29T06:54:16;98912.84;;;13.82;82.14
2339;BME280;1180;51.438;6.978;2022-12-29T06:56:42;98893.84;;;14.01;81.74
2339;BME280;1180;51.438;6.978;2022-12-29T06:59:09;98910.19;;;13.92;82.22
2339;BME280;1180;51.438;6.978;2022-12-29T07:01:35;98899.06;;;13.91;82.30
2339;BME280;1180;51.438;6.978;2022-12-29T07:04:02;98903.34;;;14.00;82.20
2339;BME280;1180;51.438;6.978;2022-12-29T07:06:27;98907.09;;;14.06;80.77
2339;BME280;1180;51.438;6.978;2022-12-29T07:08:52;98912.25;;;13.88;81.18
2339;BME280;1180;51.438;6.978;2022-12-29T07:11:21;98917.06;;;14.01;81.39
2339;BME280;1180;51.438;6.978;2022-12-29T07:13:46;98910.81;;;14.04;80.26
2339;BME280;1180;51.438;6.978;2022-12-29T07:16:12;98906.72;;;14.01;80.47
2339;BME280;1180;51.438;6.978;2022-12-29T07:18:37;98909.00;;;14.04;80.05
2339;BME280;1180;51.438;6.978;2022-12-29T07:21:03;98915.28;;;14.01;80.32
2339;BME280;1180;51.438;6.978;2022-12-29T07:23:28;98909.97;;;14.03;80.09
2339;BME280;1180;51.438;6.978;2022-12-29T07:26:05;98915.88;;;13.95;79.80
2339;BME280;1180;51.438;6.978;2022-12-29T07:28:31;98918.00;;;13.82;79.79
2339;BME280;1180;51.438;6.978;2022-12-29T07:30:59;98919.56;;;13.93;79.39
2339;BME280;1180;51.438;6.978;2022-12-29T07:33:25;98923.53;;;14.05;79.39
2339;BME280;1180;51.438;6.978;2022-12-29T07:35:50;98938.81;;;13.98;79.81
2339;BME280;1180;51.438;6.978;2022-12-29T07:38:16;98936.97;;;14.09;79.79
2339;BME280;1180;51.438;6.978;2022-12-29T07:40:42;98936.75;;;14.20;78.78
2339;BME280;1180;51.438;6.978;2022-12-29T07:43:08;98949.94;;;14.17;78.36
2339;BME280;1180;51.438;6.978;2022-12-29T07:45:33;98953.09;;;13.93;78.28
2339;BME280;1180;51.438;6.978;2022-12-29T07:47:58;98959.81;;;13.76;78.85
2339;BME280;1180;51.438;6.978;2022-12-29T07:50:24;98948.22;;;13.90;77.54
2339;BME280;1180;51.438;6.978;2022-12-29T07:52:49;98966.84;;;13.83;77.44
2339;BME280;1180;51.438;6.978;2022-12-29T07:55:15;98968.97;;;13.88;76.74
2339;BME280;1180;51.438;6.978;2022-12-29T07:57:41;98977.13;;;13.93;76.54
2339;BME280;1180;51.438;6.978;2022-12-29T08:00:07;98966.63;;;13.95;76.44
2339;BME280;1180;51.438;6.978;2022-12-29T08:02:32;98978.56;;;13.96;76.38
2339;BME280;1180;51.438;6.978;2022-12-29T08:04:58;98973.59;;;13.94;76.77
2339;BME280;1180;51.438;6.978;2022-12-29T08:07:23;98976.25;;;14.03;76.39
2339;BME280;1180;51.438;6.978;2022-12-29T08:09:48;98975.66;;;14.09;75.84
2339;BME280;1180;51.438;6.978;2022-12-29T08:12:14;98973.41;;;13.96;75.68
2339;BME280;1180;51.438;6.978;2022-12-29T08:14:39;98983.13;;;13.84;76.01
2339;BME280;1180;51.438;6.978;2022-12-29T08:17:04;98982.75;;;13.79;76.79
2339;BME280;1180;51.438;6.978;2022-12-29T08:19:30;98983.44;;;13.71;76.84
2339;BME280;1180;51.438;6.978;2022-12-29T08:21:55;98989.75;;;13.86;76.53
2339;BME280;1180;51.438;6.978;2022-12-29T08:24:20;98989.84;;;13.95;75.42
2339;BME280;1180;51.438;6.978;2022-12-29T08:26:46;98997.63;;;13.85;75.86
2339;BME280;1180;51.438;6.978;2022-12-29T08:29:11;98997.66;;;13.75;75.83
2339;BME280;1180;51.438;6.978;2022-12-29T08:31:37;98998.22;;;13.79;75.66
2339;BME280;1180;51.438;6.978;2022-12-29T08:34:03;98987.03;;;13.88;74.90
2339;BME280;1180;51.438;6.978;2022-12-29T08:36:29;98991.00;;;13.82;75.12
2339;BME280;1180;51.438;6.978;2022-12-29T08:38:55;99003.66;;;13.76;75.60
2339;BME280;1180;51.438;6.978;2022-12-29T08:41:20;98997.78;;;13.83;75.44
2339;BME280;1180;51.438;6.978;2022-12-29T08:43:49;99015.31;;;13.80;75.65
2339;BME280;1180;51.438;6.978;2022-12-29T08:46:15;99009.44;;;13.88;74.74
2339;BME280;1180;51.438;6.978;2022-12-29T08:48:41;99014.09;;;13.74;75.62
2339;BME280;1180;51.438;6.978;2022-12-29T08:51:07;99028.63;;;14.03;79.17
2339;BME280;1180;51.438;6.978;2022-12-29T08:53:33;99038.56;;;14.26;76.41
2339;BME280;1180;51.438;6.978;2022-12-29T08:56:00;99039.47;;;14.07;76.96
2339;BME280;1180;51.438;6.978;2022-12-29T08:58:26;99030.56;;;13.91;76.13
2339;BME280;1180;51.438;6.978;2022-12-29T09:00:55;99015.16;;;13.81;76.85
2339;BME280;1180;51.438;6.978;2022-12-29T09:03:22;99009.75;;;13.75;75.74
2339;BME280;1180;51.438;6.978;2022-12-29T09:05:52;99017.25;;;13.68;76.45
2339;BME280;1180;51.438;6.978;2022-12-29T09:08:17;99030.16;;;13.58;75.74
2339;BME280;1180;51.438;6.978;2022-12-29T09:10:43;99030.03;;;13.60;75.34
2339;BME280;1180;51.438;6.978;2022-12-29T09:13:09;99033.00;;;13.55;76.55
2339;BME280;1180;51.438;6.978;2022-12-29T09:15:35;99021.09;;;13.54;75.80
2339;BME280;1180;51.438;6.978;2022-12-29T09:18:00;99017.31;;;13.48;76.10
2339;BME280;1180;51.438;6.978;2022-12-29T09:20:25;99028.81;;;13.54;76.33
2339;BME280;1180;51.438;6.978;2022-12-29T09:22:53;99035.56;;;13.65;75.85
2339;BME280;1180;51.438;6.978;2022-12-29T09:25:19;99035.53;;;13.75;78.31
2339;BME280;1180;51.438;6.978;2022-12-29T09:27:45;99026.56;;;14.07;75.73
2339;BME280;1180;51.438;6.978;2022-12-29T09:30:12;99032.34;;;13.91;74.98
2339;BME280;1180;51.438;6.978;2022-12-29T09:32:37;99040.88;;;13.91;74.76
2339;BME280;1180;51.438;6.978;2022-12-29T09:35:03;99034.94;;;13.91;74.11
2339;BME280;1180;51.438;6.978;2022-12-29T09:37:29;99048.53;;;13.83;74.00
2339;BME280;1180;51.438;6.978;2022-12-29T09:39:55;99045.03;;;13.74;74.50
2339;BME280;1180;51.438;6.978;2022-12-29T09:42:37;99059.69;;;13.74;74.93
2339;BME280;1180;51.438;6.978;2022-12-29T09:45:15;99057.09;;;13.83;74.31
2339;BME280;1180;51.438;6.978;2022-12-29T09:47:45;99037.84;;;13.78;74.23
2339;BME280;1180;51.438;6.978;2022-12-29T09:50:22;99034.59;;;13.76;74.25
2339;BME280;1180;51.438;6.978;2022-12-29T09:53:07;99044.19;;;13.83;74.16
2339;BME280;1180;51.438;6.978;2022-12-29T09:55:48;99052.31;;;13.89;73.71
2339;BME280;1180;51.438;6.978;2022-12-29T09:58:26;99044.81;;;13.67;72.91
2339;BME280;1180;51.438;6.978;2022-12-29T10:01:00;99039.88;;;13.74;73.49
2339;BME280;1180;51.438;6.978;2022-12-29T10:03:36;99042.56;;;13.82;72.59
2339;BME280;1180;51.438;6.978;2022-12-29T10:09:12;99035.31;;;13.58;72.73
2339;BME280;1180;51.438;6.978;2022-12-29T10:11:56;99049.09;;;13.77;72.31
2339;BME280;1180;51.438;6.978;2022-12-29T10:17:39;99057.25;;;13.72;71.14
2339;BME280;1180;51.438;6.978;2022-12-29T10:20:28;99053.84;;;13.81;70.92
2339;BME280;1180;51.438;6.978;2022-12-29T10:25:34;99053.59;;;13.75;70.49
2339;BME280;1180;51.438;6.978;2022-12-29T10:28:06;99059.97;;;13.80;70.56
2339;BME280;1180;51.438;6.978;2022-12-29T10:30:37;99052.16;;;13.90;70.46
2339;BME280;1180;51.438;6.978;2022-12-29T10:33:06;99052.13;;;14.00;70.28
2339;BME280;1180;51.438;6.978;2022-12-29T10:35:37;99043.94;;;13.77;68.63
2339;BME280;1180;51.438;6.978;2022-12-29T10:38:25;99072.28;;;13.86;68.15
2339;BME280;1180;51.438;6.978;2022-12-29T10:41:18;99065.78;;;13.82;69.06
2339;BME280;1180;51.438;6.978;2022-12-29T10:43:54;99081.00;;;13.76;68.44
2339;BME280;1180;51.438;6.978;2022-12-29T10:46:25;99061.13;;;13.86;68.27
2339;BME280;1180;51.438;6.978;2022-12-29T10:48:52;99067.91;;;13.87;67.84
2339;BME280;1180;51.438;6.978;2022-12-29T10:51:21;99070.19;;;13.62;68.82
2339;BME280;1180;51.438;6.978;2022-12-29T10:54:33;99077.47;;;13.77;68.02
2339;BME280;1180;51.438;6.978;2022-12-29T10:56:41;99080.44;;;13.72;68.18
2339;BME280;1180;51.438;6.978;2022-12-29T10:59:20;99073.75;;;13.89;67.50
2339;BME280;1180;51.438;6.978;2022-12-29T11:02:22;99081.56;;;13.69;68.46
2339;BME280;1180;51.438;6.978;2022-12-29T11:05:06;99077.19;;;13.70;68.60
2339;BME280;1180;51.438;6.978;2022-12-29T11:07:35;99083.63;;;13.56;68.93
2339;BME280;1180;51.438;6.978;2022-12-29T11:10:37;99084.03;;;13.61;69.06
2339;BME280;1180;51.438;6.978;2022-12-29T11:13:15;99096.34;;;13.77;68.50
2339;BME280;1180;51.438;6.978;2022-12-29T11:18:32;99099.13;;;13.46;69.83
2339;BME280;1180;51.438;6.978;2022-12-29T11:21:00;99094.63;;;13.48;69.76
2339;BME280;1180;51.438;6.978;2022-12-29T11:23:36;99097.03;;;13.60;69.33
2339;BME280;1180;51.438;6.978;2022-12-29T11:26:21;99102.84;;;13.71;68.83
2339;BME280;1180;51.438;6.978;2022-12-29T11:31:55;99100.34;;;13.90;68.33
2339;BME280;1180;51.438;6.978;2022-12-29T11:36:50;99102.41;;;13.86;67.40
2339;BME280;1180;51.438;6.978;2022-12-29T11:39:29;99126.69;;;13.93;68.05
2339;BME280;1180;51.438;6.978;2022-12-29T11:41:56;99118.75;;;13.57;69.14
2339;BME280;1180;51.438;6.978;2022-12-29T11:44:22;99116.16;;;13.57;69.23
2339;BME280;1180;51.438;6.978;2022-12-29T11:46:51;99122.34;;;13.84;68.25
2339;BME280;1180;51.438;6.978;2022-12-29T11:49:22;99125.38;;;13.79;68.06
2339;BME280;1180;51.438;6.978;2022-12-29T11:51:50;99127.13;;;13.79;68.28
2339;BME280;1180;51.438;6.978;2022-12-29T11:54:23;99136.19;;;13.83;68.65
2339;BME280;1180;51.438;6.978;2022-12-29T11:56:50;99141.13;;;13.76;68.44
2339;BME280;1180;51.438;6.978;2022-12-29T12:03:04;99144.31;;;13.88;67.88
2339;BME280;1180;51.438;6.978;2022-12-29T12:05:20;99143.44;;;13.69;67.59
2339;BME280;1180;51.438;6.978;2022-12-29T12:07:54;99142.75;;;13.77;67.41
2339;BME280;1180;51.438;6.978;2022-12-29T12:10:29;99138.78;;;13.73;68.13
2339;BME280;1180;51.438;6.978;2022-12-29T12:16:08;99145.34;;;13.57;67.90
2339;BME280;1180;51.438;6.978;2022-12-29T12:18:41;99146.97;;;13.58;69.03
2339;BME280;1180;51.438;6.978;2022-12-29T12:21:30;99148.19;;;13.64;68.92
2339;BME280;1180;51.438;6.978;2022-12-29T12:24:20;99152.72;;;13.90;67.81
2339;BME280;1180;51.438;6.978;2022-12-29T12:26:55;99144.78;;;13.74;68.11
2339;BME280;1180;51.438;6.978;2022-12-29T12:35:12;99169.63;;;13.65;68.24
2339;BME280;1180;51.438;6.978;2022-12-29T12:38:01;99159.47;;;13.63;67.94
2339;BME280;1180;51.438;6.978;2022-12-29T12:40:59;99152.91;;;13.69;67.80
2339;BME280;1180;51.438;6.978;2022-12-29T12:43:41;99162.44;;;13.68;67.65
2339;BME280;1180;51.438;6.978;2022-12-29T12:46:49;99164.03;;;13.40;68.53
2339;BME280;1180;51.438;6.978;2022-12-29T12:49:37;99171.13;;;13.57;68.41
2339;BME280;1180;51.438;6.978;2022-12-29T12:55:11;99173.97;;;13.64;67.97
2339;BME280;1180;51.438;6.978;2022-12-29T13:00:23;99179.09;;;13.74;67.86
2339;BME280;1180;51.438;6.978;2022-12-29T13:02:53;99183.72;;;13.70;67.97
2339;BME280;1180;51.438;6.978;2022-12-29T13:21:34;99188.22;;;13.68;68.14
2339;BME280;1180;51.438;6.978;2022-12-29T13:24:15;99190.66;;;13.60;68.77
2339;BME280;1180;51.438;6.978;2022-12-29T13:26:48;99190.25;;;13.55;69.08
2339;BME280;1180;51.438;6.978;2022-12-29T13:29:22;99204.22;;;13.62;69.53
2339;BME280;1180;51.438;6.978;2022-12-29T13:31:51;99206.25;;;13.78;68.78
2339;BME280;1180;51.438;6.978;2022-12-29T13:34:37;99207.44;;;13.84;68.30
2339;BME280;1180;51.438;6.978;2022-12-29T13:37:13;99213.03;;;13.69;70.01
2339;BME280;1180;51.438;6.978;2022-12-29T13:39:47;99196.19;;;13.75;70.41
2339;BME280;1180;51.438;6.978;2022-12-29T13:42:16;99203.81;;;13.67;70.64
2339;BME280;1180;51.438;6.978;2022-12-29T13:44:46;99207.09;;;13.59;70.64
2339;BME280;1180;51.438;6.978;2022-12-29T13:47:37;99212.19;;;13.39;71.73
2339;BME280;1180;51.438;6.978;2022-12-29T13:50:18;99213.47;;;13.45;71.55
2339;BME280;1180;51.438;6.978;2022-12-29T14:03:44;99222.69;;;13.67;70.22
2339;BME280;1180;51.438;6.978;2022-12-29T14:06:32;99218.19;;;13.69;69.79
2339;BME280;1180;51.438;6.978;2022-12-29T14:09:04;99221.31;;;13.63;70.42
2339;BME280;1180;51.438;6.978;2022-12-29T14:11:36;99223.88;;;13.73;69.93
2339;BME280;1180;51.438;6.978;2022-12-29T14:14:18;99219.81;;;13.70;69.71
2339;BME280;1180;51.438;6.978;2022-12-29T14:16:46;99226.88;;;13.68;69.08
2339;BME280;1180;51.438;6.978;2022-12-29T14:19:18;99227.84;;;13.67;69.26
2339;BME280;1180;51.438;6.978;2022-12-29T14:21:59;99235.84;;;13.64;69.29
2339;BME280;1180;51.438;6.978;2022-12-29T14:26:58;99221.84;;;13.67;68.74
2339;BME280;1180;51.438;6.978;2022-12-29T14:31:50;99235.16;;;13.62;69.19
2339;BME280;1180;51.438;6.978;2022-12-29T14:37:00;99236.34;;;13.58;68.72
2339;BME280;1180;51.438;6.978;2022-12-29T14:39:35;99248.56;;;13.66;68.34
2339;BME280;1180;51.438;6.978;2022-12-29T14:44:57;99257.69;;;13.60;67.89
2339;BME280;1180;51.438;6.978;2022-12-29T14:49:55;99262.56;;;13.63;68.44
2339;BME280;1180;51.438;6.978;2022-12-29T14:52:28;99257.69;;;13.60;68.00
2339;BME280;1180;51.438;6.978;2022-12-29T14:54:56;99257.94;;;13.47;68.41
2339;BME280;1180;51.438;6.978;2022-12-29T14:57:27;99261.00;;;13.31;68.96
2339;BME280;1180;51.438;6.978;2022-12-29T14:59:59;99261.47;;;13.56;68.15
2339;BME280;1180;51.438;6.978;2022-12-29T15:02:31;99264.88;;;13.66;68.19
2339;BME280;1180;51.438;6.978;2022-12-29T15:04:59;99270.03;;;13.76;67.62
2339;BME280;1180;51.438;6.978;2022-12-29T15:07:27;99269.47;;;13.72;67.22
2339;BME280;1180;51.438;6.978;2022-12-29T15:09:58;99272.59;;;13.56;67.84
2339;BME280;1180;51.438;6.978;2022-12-29T15:12:46;99270.56;;;13.60;68.03
2339;BME280;1180;51.438;6.978;2022-12-29T15:17:44;99277.06;;;13.54;67.91
2339;BME280;1180;51.438;6.978;2022-12-29T15:20:29;99281.56;;;13.52;68.39